Warsaw, IN

3:39 AM EDT on June 24, 2017 (GMT -0400)
Winona Lake | | Change Station
Active Advisory: Flood Warning Active Notice: Public Information Statement

Elev 820 ft 41.22 °N, 85.82 °W | Updated 1 minute ago

Scattered Clouds
Scattered Clouds
67.0 °F
Feels Like 67.0 °F
N
5.0
Wind Variable Wind from NW
Gusts 9.0 mph

Today
High -- | Low -- °F
--% Chance of Precip.
Yesterday
High -- | Low -- °F
Precip. -- in
Pressure 29.85 in
Visibility 10.0 miles
Clouds Scattered Clouds 5000 ft
Scattered Clouds 6000 ft
Dew Point 61 °F
Humidity 81%
Rainfall 0.00 in
Snow Depth Not available.
6:11 AM 9:20 PM
New Moon, 0% visible
METAR KASW 240735Z AUTO 30006KT 10SM SCT050 SCT060 16/12 A2985 RMK AO2
Pressure 29.85 in
Visibility 10.0 miles
Clouds Scattered Clouds 5000 ft
Scattered Clouds 6000 ft
Dew Point 61 °F
Humidity 81%
Rainfall 0.00 in
Snow Depth Not available.
6:11 AM 9:20 PM
New Moon, 0% visible
METAR KASW 240735Z AUTO 30006KT 10SM SCT050 SCT060 16/12 A2985 RMK AO2

Get Your Daily Forecast Email!

Thanks for signing up!

Be on the lookout for a verification email in your inbox.

You'll start receiving severe weather alerts in your inbox..

×

10-Day Weather Forecast

Almanac

Astronomy

Jun. 24, 2017 Rise Set
Actual Time
Civil Twilight
Nautical Twilight
Astronomical Twilight
Moon
Length of Visible Light
Length of Day
Tomorrow will be .
, % of the Moon is Illuminated

Today's Extremes

State Highs State Lows

Community

WunderPhotos

Category 6

Welcome to Category 6. This is the collective home for Weather Underground's featured writeups by Dr. Jeff Masters (right), Bob Henson (left), Chris Burt, and other regular contributors.

Nearby

Air Quality

  Air Quality AQ Index Pollutant
Not available.

Snow Depth

Station Depth Elevation

Earthquake Activity

City Distance Mag. Time & Date
Minimum magnitude displayed is 2.5.

Coastal Water Temperatures

Place Temperature

Stations

Nearby Weather Stations

Station Location Temp. Windchill Dew Point Humidity Wind Precip. Elev Updated Type
                   

Watches & Warnings

Flood Warning
Issued: 10:29 PM EDT Jun. 23, 2017 – National Weather Service

The Flood Warning continues for
the Eel River at North Manchester
* until Sunday evening.
* At 9 PM Friday the stage was 11.5 feet and falling.
* Moderate flooding is occurring and moderate flooding is forecast.
* Flood stage is 9.0 feet.
* Forecast... the river will fall below the 9.0 foot flood stage
around 9 PM Saturday June 24.
* At 11.0 feet... flood water nears the lumber company and trailer
court on South Mill street.
* This crest compares to a previous crest of 11.4 feet which occurred
on Nov 30 2011.


Lat... Lon 4076 8635 4097 8592 4102 8577 4099 8577
      4087 8599 4072 8631